Skip Navigation Links Skip Navigation Links

Current Weather

Beaver County, Beaver Falls, Penn.

For information only: do not use for flight planning or navigation.
Latest weather
Observation time Tuesday, January 26, 2021 8:15 PM EST
Local time Tuesday, January 26, 2021 8:45 PM EST
Flight conditions Marginal Visual Meteorological Conditions
Winds
Wind direction West-Northwest (290°)
Wind speed 16 mph
Wind gusting to 23 mph
Visibility 10 mi.
Sky condition
Ceiling 1,400 ft. overcast
Cloud layer overcast 1,400 ft.
Temperature 36°F
Dewpoint 32°F
Altimeter 29.84 in.Hg
Derived measurements
Relative humidity 84%
Wind chill 27°F
Density altitude -80 ft.
Remarks
Fully automated report.
Automated weather observing station with precipitation discriminator.
METAR KBVI 270115Z AUTO 29014G20KT 10SM OVC014 03/00 A2984 RMK AO2 T00250000

Settings

Location code

InnerDrive.Weather 4.0.6770.0 Release CLR 4.0.30319.42000
Copyright ©2018 Inner Drive Technology. All rights reserved. Portions Copyright ©1986-2018 David Braverman.

Find weather

Site navigation


Skip Navigation Links

Place info

Page info

PayPal - The safer, easier way to pay online!

Return home.

Copyright ©2021 Inner Drive Technology. Purveyors of fine, hand-crafted computer software. Page printed 2021-01-27T01:45:07 UTC.